sensor_id;sensor_type;location;lat;lon;timestamp;temperature;humidity
22923;DHT22;11627;51.322;22.816;2022-11-15T00:01:14;7.00;46.20
22923;DHT22;11627;51.322;22.816;2022-11-15T00:03:40;7.10;47.40
22923;DHT22;11627;51.322;22.816;2022-11-15T00:06:08;7.10;47.20
22923;DHT22;11627;51.322;22.816;2022-11-15T00:08:35;7.20;44.90
22923;DHT22;11627;51.322;22.816;2022-11-15T00:11:02;7.10;42.20
22923;DHT22;11627;51.322;22.816;2022-11-15T00:13:30;7.10;43.00
22923;DHT22;11627;51.322;22.816;2022-11-15T00:16:00;7.10;40.00
22923;DHT22;11627;51.322;22.816;2022-11-15T00:18:26;7.20;37.80
22923;DHT22;11627;51.322;22.816;2022-11-15T00:20:52;7.10;31.50
22923;DHT22;11627;51.322;22.816;2022-11-15T00:23:19;7.00;36.10
22923;DHT22;11627;51.322;22.816;2022-11-15T00:25:44;7.00;35.80
22923;DHT22;11627;51.322;22.816;2022-11-15T00:28:11;7.00;36.30
22923;DHT22;11627;51.322;22.816;2022-11-15T00:30:37;7.00;37.30
22923;DHT22;11627;51.322;22.816;2022-11-15T00:33:05;7.00;39.50
22923;DHT22;11627;51.322;22.816;2022-11-15T00:35:32;6.90;40.00
22923;DHT22;11627;51.322;22.816;2022-11-15T00:37:59;7.00;39.50
22923;DHT22;11627;51.322;22.816;2022-11-15T00:40:26;7.60;44.00
22923;DHT22;11627;51.322;22.816;2022-11-15T00:42:52;8.10;43.60
22923;DHT22;11627;51.322;22.816;2022-11-15T00:45:18;7.10;40.50
22923;DHT22;11627;51.322;22.816;2022-11-15T00:47:47;7.20;37.80
22923;DHT22;11627;51.322;22.816;2022-11-15T00:50:13;7.10;35.40
22923;DHT22;11627;51.322;22.816;2022-11-15T00:52:40;6.90;38.30
22923;DHT22;11627;51.322;22.816;2022-11-15T00:55:15;6.90;38.80
22923;DHT22;11627;51.322;22.816;2022-11-15T00:57:43;7.00;38.90
22923;DHT22;11627;51.322;22.816;2022-11-15T01:00:09;6.80;39.30
22923;DHT22;11627;51.322;22.816;2022-11-15T01:02:35;6.80;40.70
22923;DHT22;11627;51.322;22.816;2022-11-15T01:05:00;6.80;42.30
22923;DHT22;11627;51.322;22.816;2022-11-15T01:07:27;6.80;44.20
22923;DHT22;11627;51.322;22.816;2022-11-15T01:09:53;6.90;45.90
22923;DHT22;11627;51.322;22.816;2022-11-15T01:12:20;6.80;46.80
22923;DHT22;11627;51.322;22.816;2022-11-15T01:14:45;6.80;48.90
22923;DHT22;11627;51.322;22.816;2022-11-15T01:17:11;6.90;46.60
22923;DHT22;11627;51.322;22.816;2022-11-15T01:19:38;6.90;46.30
22923;DHT22;11627;51.322;22.816;2022-11-15T01:22:05;6.80;47.10
22923;DHT22;11627;51.322;22.816;2022-11-15T01:24:31;6.90;46.90
22923;DHT22;11627;51.322;22.816;2022-11-15T01:26:58;6.90;44.20
22923;DHT22;11627;51.322;22.816;2022-11-15T01:29:25;7.00;44.60
22923;DHT22;11627;51.322;22.816;2022-11-15T01:31:53;6.90;45.10
22923;DHT22;11627;51.322;22.816;2022-11-15T01:34:19;6.90;45.90
22923;DHT22;11627;51.322;22.816;2022-11-15T01:36:44;6.90;47.20
22923;DHT22;11627;51.322;22.816;2022-11-15T01:39:10;6.90;44.60
22923;DHT22;11627;51.322;22.816;2022-11-15T01:41:35;7.00;39.80
22923;DHT22;11627;51.322;22.816;2022-11-15T01:44:40;7.60;39.30
22923;DHT22;11627;51.322;22.816;2022-11-15T01:47:21;6.90;40.70
22923;DHT22;11627;51.322;22.816;2022-11-15T01:50:10;6.90;40.50
22923;DHT22;11627;51.322;22.816;2022-11-15T01:52:38;7.50;41.70
22923;DHT22;11627;51.322;22.816;2022-11-15T01:55:13;6.80;41.70
22923;DHT22;11627;51.322;22.816;2022-11-15T01:57:41;7.20;42.90
22923;DHT22;11627;51.322;22.816;2022-11-15T02:00:08;6.80;43.10
22923;DHT22;11627;51.322;22.816;2022-11-15T02:02:36;6.80;43.90
22923;DHT22;11627;51.322;22.816;2022-11-15T02:05:02;6.70;45.20
22923;DHT22;11627;51.322;22.816;2022-11-15T02:07:28;6.80;45.20
22923;DHT22;11627;51.322;22.816;2022-11-15T02:09:58;6.90;46.60
22923;DHT22;11627;51.322;22.816;2022-11-15T02:12:25;6.90;46.60
22923;DHT22;11627;51.322;22.816;2022-11-15T02:14:53;6.90;46.40
22923;DHT22;11627;51.322;22.816;2022-11-15T02:17:29;6.90;43.20
22923;DHT22;11627;51.322;22.816;2022-11-15T02:41:57;6.80;47.00
22923;DHT22;11627;51.322;22.816;2022-11-15T02:44:43;6.80;48.50
22923;DHT22;11627;51.322;22.816;2022-11-15T02:47:14;6.70;46.00
22923;DHT22;11627;51.322;22.816;2022-11-15T02:49:52;6.80;45.80
22923;DHT22;11627;51.322;22.816;2022-11-15T02:52:24;6.70;46.00
22923;DHT22;11627;51.322;22.816;2022-11-15T02:54:55;6.70;46.40
22923;DHT22;11627;51.322;22.816;2022-11-15T03:08:01;6.70;47.20
22923;DHT22;11627;51.322;22.816;2022-11-15T03:13:30;6.60;45.90
22923;DHT22;11627;51.322;22.816;2022-11-15T03:16:11;6.70;47.40
22923;DHT22;11627;51.322;22.816;2022-11-15T03:18:48;7.10;47.00
22923;DHT22;11627;51.322;22.816;2022-11-15T03:21:19;6.70;44.50
22923;DHT22;11627;51.322;22.816;2022-11-15T03:23:47;6.70;45.30
22923;DHT22;11627;51.322;22.816;2022-11-15T03:26:16;6.60;45.60
22923;DHT22;11627;51.322;22.816;2022-11-15T03:28:57;6.70;47.60
22923;DHT22;11627;51.322;22.816;2022-11-15T03:31:28;6.60;47.90
22923;DHT22;11627;51.322;22.816;2022-11-15T03:34:29;6.60;47.70
22923;DHT22;11627;51.322;22.816;2022-11-15T03:36:57;6.60;47.10
22923;DHT22;11627;51.322;22.816;2022-11-15T03:39:24;6.60;47.20
22923;DHT22;11627;51.322;22.816;2022-11-15T03:47:34;6.50;52.20
22923;DHT22;11627;51.322;22.816;2022-11-15T03:50:17;6.60;53.10
22923;DHT22;11627;51.322;22.816;2022-11-15T03:52:46;6.50;52.80
22923;DHT22;11627;51.322;22.816;2022-11-15T03:55:15;6.60;52.30
22923;DHT22;11627;51.322;22.816;2022-11-15T03:57:41;7.20;52.70
22923;DHT22;11627;51.322;22.816;2022-11-15T04:00:08;6.60;53.40
22923;DHT22;11627;51.322;22.816;2022-11-15T04:02:35;6.60;52.60
22923;DHT22;11627;51.322;22.816;2022-11-15T04:05:03;6.50;51.30
22923;DHT22;11627;51.322;22.816;2022-11-15T04:07:29;6.50;51.00
22923;DHT22;11627;51.322;22.816;2022-11-15T04:09:55;6.80;50.20
22923;DHT22;11627;51.322;22.816;2022-11-15T04:12:30;6.60;49.50
22923;DHT22;11627;51.322;22.816;2022-11-15T04:15:06;6.00;48.50
22923;DHT22;11627;51.322;22.816;2022-11-15T04:17:47;6.60;48.70
22923;DHT22;11627;51.322;22.816;2022-11-15T04:20:18;6.50;50.70
22923;DHT22;11627;51.322;22.816;2022-11-15T04:23:15;6.50;51.40
22923;DHT22;11627;51.322;22.816;2022-11-15T04:26:02;6.50;51.40
22923;DHT22;11627;51.322;22.816;2022-11-15T04:28:28;6.40;53.30
22923;DHT22;11627;51.322;22.816;2022-11-15T04:30:53;6.40;55.20
22923;DHT22;11627;51.322;22.816;2022-11-15T04:33:21;6.30;56.60
22923;DHT22;11627;51.322;22.816;2022-11-15T04:35:47;6.30;58.60
22923;DHT22;11627;51.322;22.816;2022-11-15T04:38:33;6.70;60.50
22923;DHT22;11627;51.322;22.816;2022-11-15T04:40:59;6.40;59.80
22923;DHT22;11627;51.322;22.816;2022-11-15T04:43:24;6.40;60.90
22923;DHT22;11627;51.322;22.816;2022-11-15T04:45:50;6.30;60.10
22923;DHT22;11627;51.322;22.816;2022-11-15T04:48:16;6.30;61.40
22923;DHT22;11627;51.322;22.816;2022-11-15T04:50:41;6.70;60.80
22923;DHT22;11627;51.322;22.816;2022-11-15T04:53:07;6.40;60.90
22923;DHT22;11627;51.322;22.816;2022-11-15T04:55:32;6.40;60.00
22923;DHT22;11627;51.322;22.816;2022-11-15T04:57:59;6.40;58.80
22923;DHT22;11627;51.322;22.816;2022-11-15T05:00:25;6.30;59.40
22923;DHT22;11627;51.322;22.816;2022-11-15T05:02:51;6.30;58.60
22923;DHT22;11627;51.322;22.816;2022-11-15T05:05:36;6.30;57.80
22923;DHT22;11627;51.322;22.816;2022-11-15T05:08:01;6.60;57.00
22923;DHT22;11627;51.322;22.816;2022-11-15T05:10:27;6.20;57.70
22923;DHT22;11627;51.322;22.816;2022-11-15T05:12:53;6.30;57.40
22923;DHT22;11627;51.322;22.816;2022-11-15T05:15:18;6.30;56.50
22923;DHT22;11627;51.322;22.816;2022-11-15T05:17:44;6.20;57.80
22923;DHT22;11627;51.322;22.816;2022-11-15T05:20:11;6.30;57.70
22923;DHT22;11627;51.322;22.816;2022-11-15T05:22:39;6.20;58.70
22923;DHT22;11627;51.322;22.816;2022-11-15T05:25:07;6.20;61.50
22923;DHT22;11627;51.322;22.816;2022-11-15T05:27:34;6.30;61.00
22923;DHT22;11627;51.322;22.816;2022-11-15T05:30:01;6.30;58.90
22923;DHT22;11627;51.322;22.816;2022-11-15T05:32:29;6.50;58.50
22923;DHT22;11627;51.322;22.816;2022-11-15T05:34:56;6.40;58.70
22923;DHT22;11627;51.322;22.816;2022-11-15T05:37:23;6.40;56.60
22923;DHT22;11627;51.322;22.816;2022-11-15T05:39:48;6.40;55.10
22923;DHT22;11627;51.322;22.816;2022-11-15T05:42:16;6.30;54.30
22923;DHT22;11627;51.322;22.816;2022-11-15T05:44:46;6.30;52.90
22923;DHT22;11627;51.322;22.816;2022-11-15T05:47:19;6.30;54.70
22923;DHT22;11627;51.322;22.816;2022-11-15T05:49:48;6.30;54.00
22923;DHT22;11627;51.322;22.816;2022-11-15T05:52:20;6.30;54.90
22923;DHT22;11627;51.322;22.816;2022-11-15T05:54:48;6.30;55.10
22923;DHT22;11627;51.322;22.816;2022-11-15T05:57:16;6.30;50.70
22923;DHT22;11627;51.322;22.816;2022-11-15T05:59:42;6.20;50.90
22923;DHT22;11627;51.322;22.816;2022-11-15T06:02:10;6.20;51.40
22923;DHT22;11627;51.322;22.816;2022-11-15T06:04:37;6.20;52.50
22923;DHT22;11627;51.322;22.816;2022-11-15T06:07:04;5.80;54.10
22923;DHT22;11627;51.322;22.816;2022-11-15T06:09:31;6.10;55.90
22923;DHT22;11627;51.322;22.816;2022-11-15T06:11:56;6.20;53.90
22923;DHT22;11627;51.322;22.816;2022-11-15T06:14:23;6.30;53.70
22923;DHT22;11627;51.322;22.816;2022-11-15T06:16:49;6.10;55.20
22923;DHT22;11627;51.322;22.816;2022-11-15T06:19:16;6.10;57.40
22923;DHT22;11627;51.322;22.816;2022-11-15T06:21:43;6.00;59.00
22923;DHT22;11627;51.322;22.816;2022-11-15T06:24:10;6.10;59.10
22923;DHT22;11627;51.322;22.816;2022-11-15T06:26:35;6.10;58.80
22923;DHT22;11627;51.322;22.816;2022-11-15T06:29:03;6.10;57.60
22923;DHT22;11627;51.322;22.816;2022-11-15T06:31:30;6.10;58.40
22923;DHT22;11627;51.322;22.816;2022-11-15T06:33:55;6.10;57.60
22923;DHT22;11627;51.322;22.816;2022-11-15T06:36:21;6.10;55.60
22923;DHT22;11627;51.322;22.816;2022-11-15T06:38:47;6.00;54.50
22923;DHT22;11627;51.322;22.816;2022-11-15T06:41:13;6.00;55.60
22923;DHT22;11627;51.322;22.816;2022-11-15T06:43:40;6.00;57.80
22923;DHT22;11627;51.322;22.816;2022-11-15T06:46:07;6.00;59.80
22923;DHT22;11627;51.322;22.816;2022-11-15T06:48:35;6.00;62.20
22923;DHT22;11627;51.322;22.816;2022-11-15T06:51:03;6.00;61.60
22923;DHT22;11627;51.322;22.816;2022-11-15T06:53:30;6.10;60.70
22923;DHT22;11627;51.322;22.816;2022-11-15T06:56:05;6.20;60.10
22923;DHT22;11627;51.322;22.816;2022-11-15T06:58:32;6.10;59.40
22923;DHT22;11627;51.322;22.816;2022-11-15T07:01:00;6.00;59.60
22923;DHT22;11627;51.322;22.816;2022-11-15T07:03:26;6.00;60.60
22923;DHT22;11627;51.322;22.816;2022-11-15T07:05:56;5.90;60.50
22923;DHT22;11627;51.322;22.816;2022-11-15T07:08:23;6.00;58.90
22923;DHT22;11627;51.322;22.816;2022-11-15T07:10:50;6.00;58.80
22923;DHT22;11627;51.322;22.816;2022-11-15T07:13:17;5.90;59.00
22923;DHT22;11627;51.322;22.816;2022-11-15T07:15:43;6.00;58.40
22923;DHT22;11627;51.322;22.816;2022-11-15T07:18:08;6.10;57.90
22923;DHT22;11627;51.322;22.816;2022-11-15T07:20:34;5.90;58.70
22923;DHT22;11627;51.322;22.816;2022-11-15T07:23:01;5.90;59.50
22923;DHT22;11627;51.322;22.816;2022-11-15T07:25:27;5.90;62.00
22923;DHT22;11627;51.322;22.816;2022-11-15T07:27:58;6.00;62.60
22923;DHT22;11627;51.322;22.816;2022-11-15T07:30:24;5.90;64.10
22923;DHT22;11627;51.322;22.816;2022-11-15T07:32:56;6.60;64.90
22923;DHT22;11627;51.322;22.816;2022-11-15T07:35:23;6.00;64.10
22923;DHT22;11627;51.322;22.816;2022-11-15T07:37:59;6.10;63.90
22923;DHT22;11627;51.322;22.816;2022-11-15T07:40:31;6.00;65.10
22923;DHT22;11627;51.322;22.816;2022-11-15T07:43:06;6.10;64.50
22923;DHT22;11627;51.322;22.816;2022-11-15T07:45:33;6.20;63.50
22923;DHT22;11627;51.322;22.816;2022-11-15T07:48:01;6.00;61.90
22923;DHT22;11627;51.322;22.816;2022-11-15T07:50:27;6.10;62.90
22923;DHT22;11627;51.322;22.816;2022-11-15T07:52:57;6.10;60.50
22923;DHT22;11627;51.322;22.816;2022-11-15T07:55:25;6.10;59.50
22923;DHT22;11627;51.322;22.816;2022-11-15T07:57:53;6.10;59.50
22923;DHT22;11627;51.322;22.816;2022-11-15T08:00:25;6.10;60.20
22923;DHT22;11627;51.322;22.816;2022-11-15T08:02:51;6.00;63.20
22923;DHT22;11627;51.322;22.816;2022-11-15T08:05:17;6.50;64.80
22923;DHT22;11627;51.322;22.816;2022-11-15T08:07:43;6.10;63.90
22923;DHT22;11627;51.322;22.816;2022-11-15T08:10:10;6.10;63.70
22923;DHT22;11627;51.322;22.816;2022-11-15T08:12:37;6.10;65.10
22923;DHT22;11627;51.322;22.816;2022-11-15T08:15:03;6.20;63.20
22923;DHT22;11627;51.322;22.816;2022-11-15T08:17:28;6.20;62.60
22923;DHT22;11627;51.322;22.816;2022-11-15T08:19:58;6.20;59.60
22923;DHT22;11627;51.322;22.816;2022-11-15T08:22:23;6.10;57.70
22923;DHT22;11627;51.322;22.816;2022-11-15T08:24:49;6.20;54.80
22923;DHT22;11627;51.322;22.816;2022-11-15T08:27:14;6.20;52.70
22923;DHT22;11627;51.322;22.816;2022-11-15T08:29:44;6.10;53.40
22923;DHT22;11627;51.322;22.816;2022-11-15T08:32:10;6.00;54.30
22923;DHT22;11627;51.322;22.816;2022-11-15T08:34:37;6.00;57.50
22923;DHT22;11627;51.322;22.816;2022-11-15T08:37:02;6.00;60.00
22923;DHT22;11627;51.322;22.816;2022-11-15T08:39:28;6.10;59.20
22923;DHT22;11627;51.322;22.816;2022-11-15T08:41:53;6.20;57.00
22923;DHT22;11627;51.322;22.816;2022-11-15T08:44:19;6.10;55.50
22923;DHT22;11627;51.322;22.816;2022-11-15T08:46:48;6.00;56.50
22923;DHT22;11627;51.322;22.816;2022-11-15T08:49:13;6.10;58.40
22923;DHT22;11627;51.322;22.816;2022-11-15T08:51:39;6.10;60.10
22923;DHT22;11627;51.322;22.816;2022-11-15T08:54:04;6.40;60.10
22923;DHT22;11627;51.322;22.816;2022-11-15T08:56:30;6.10;60.40
22923;DHT22;11627;51.322;22.816;2022-11-15T08:58:56;6.20;60.40
22923;DHT22;11627;51.322;22.816;2022-11-15T09:01:22;6.20;57.60
22923;DHT22;11627;51.322;22.816;2022-11-15T09:03:48;6.50;57.10
22923;DHT22;11627;51.322;22.816;2022-11-15T09:06:14;6.10;58.10
22923;DHT22;11627;51.322;22.816;2022-11-15T09:08:40;6.20;58.50
22923;DHT22;11627;51.322;22.816;2022-11-15T09:11:08;6.20;55.90
22923;DHT22;11627;51.322;22.816;2022-11-15T09:13:34;6.20;55.10
22923;DHT22;11627;51.322;22.816;2022-11-15T09:16:01;6.20;55.70
22923;DHT22;11627;51.322;22.816;2022-11-15T09:18:27;6.40;56.80
22923;DHT22;11627;51.322;22.816;2022-11-15T09:20:59;6.50;58.00
22923;DHT22;11627;51.322;22.816;2022-11-15T09:23:26;6.20;59.50
22923;DHT22;11627;51.322;22.816;2022-11-15T09:25:52;6.50;60.70
22923;DHT22;11627;51.322;22.816;2022-11-15T09:28:22;6.30;58.50
22923;DHT22;11627;51.322;22.816;2022-11-15T09:30:48;6.30;59.70
22923;DHT22;11627;51.322;22.816;2022-11-15T09:33:14;6.40;60.90
22923;DHT22;11627;51.322;22.816;2022-11-15T09:35:39;6.40;60.90
22923;DHT22;11627;51.322;22.816;2022-11-15T09:38:06;7.30;59.30
22923;DHT22;11627;51.322;22.816;2022-11-15T09:40:32;6.70;61.60
22923;DHT22;11627;51.322;22.816;2022-11-15T09:43:40;6.50;61.90
22923;DHT22;11627;51.322;22.816;2022-11-15T09:49:02;6.50;60.20
22923;DHT22;11627;51.322;22.816;2022-11-15T09:51:36;6.50;56.30
22923;DHT22;11627;51.322;22.816;2022-11-15T09:54:21;6.50;55.50
22923;DHT22;11627;51.322;22.816;2022-11-15T09:56:49;6.50;52.80
22923;DHT22;11627;51.322;22.816;2022-11-15T10:02:39;6.50;54.00
22923;DHT22;11627;51.322;22.816;2022-11-15T10:05:12;6.40;54.60
22923;DHT22;11627;51.322;22.816;2022-11-15T10:13:02;6.40;60.00
22923;DHT22;11627;51.322;22.816;2022-11-15T10:15:28;6.50;59.00
22923;DHT22;11627;51.322;22.816;2022-11-15T10:20:48;6.50;55.20
22923;DHT22;11627;51.322;22.816;2022-11-15T10:23:17;6.40;57.00
22923;DHT22;11627;51.322;22.816;2022-11-15T10:25:43;6.60;57.50
22923;DHT22;11627;51.322;22.816;2022-11-15T10:28:25;6.70;54.90
22923;DHT22;11627;51.322;22.816;2022-11-15T10:30:54;6.50;58.30
22923;DHT22;11627;51.322;22.816;2022-11-15T10:35:48;6.60;60.20
22923;DHT22;11627;51.322;22.816;2022-11-15T10:38:14;6.60;60.70
22923;DHT22;11627;51.322;22.816;2022-11-15T10:40:40;6.70;61.50
22923;DHT22;11627;51.322;22.816;2022-11-15T10:45:35;6.90;56.80
22923;DHT22;11627;51.322;22.816;2022-11-15T10:50:44;6.70;54.50
22923;DHT22;11627;51.322;22.816;2022-11-15T10:53:24;7.60;54.90
22923;DHT22;11627;51.322;22.816;2022-11-15T10:55:53;6.70;54.50
22923;DHT22;11627;51.322;22.816;2022-11-15T11:01:18;6.80;54.70
22923;DHT22;11627;51.322;22.816;2022-11-15T11:03:57;6.80;55.60
22923;DHT22;11627;51.322;22.816;2022-11-15T11:06:24;6.80;56.70
22923;DHT22;11627;51.322;22.816;2022-11-15T11:08:58;6.90;56.10
22923;DHT22;11627;51.322;22.816;2022-11-15T11:11:47;6.90;54.80
22923;DHT22;11627;51.322;22.816;2022-11-15T11:14:36;6.90;54.80
22923;DHT22;11627;51.322;22.816;2022-11-15T11:26:35;7.00;54.80
22923;DHT22;11627;51.322;22.816;2022-11-15T11:47:47;7.10;50.90
22923;DHT22;11627;51.322;22.816;2022-11-15T11:50:22;7.10;50.80
22923;DHT22;11627;51.322;22.816;2022-11-15T11:55:37;7.20;52.40
22923;DHT22;11627;51.322;22.816;2022-11-15T11:58:13;7.20;48.10
22923;DHT22;11627;51.322;22.816;2022-11-15T12:01:32;7.10;49.50
22923;DHT22;11627;51.322;22.816;2022-11-15T12:04:36;7.10;53.90
22923;DHT22;11627;51.322;22.816;2022-11-15T12:07:02;7.20;54.60
22923;DHT22;11627;51.322;22.816;2022-11-15T12:12:23;7.40;55.00
22923;DHT22;11627;51.322;22.816;2022-11-15T12:15:04;7.50;53.40
22923;DHT22;11627;51.322;22.816;2022-11-15T12:17:36;7.50;50.50
22923;DHT22;11627;51.322;22.816;2022-11-15T12:20:14;7.60;48.20
22923;DHT22;11627;51.322;22.816;2022-11-15T12:28:04;7.50;47.20
22923;DHT22;11627;51.322;22.816;2022-11-15T12:31:02;7.70;49.30
22923;DHT22;11627;51.322;22.816;2022-11-15T12:36:07;7.70;39.40
22923;DHT22;11627;51.322;22.816;2022-11-15T12:41:23;7.40;38.70
22923;DHT22;11627;51.322;22.816;2022-11-15T12:43:49;7.30;45.70
22923;DHT22;11627;51.322;22.816;2022-11-15T12:49:11;7.50;49.50
22923;DHT22;11627;51.322;22.816;2022-11-15T12:59:58;7.40;57.00
22923;DHT22;11627;51.322;22.816;2022-11-15T13:02:39;7.40;55.80
22923;DHT22;11627;51.322;22.816;2022-11-15T13:17:55;7.30;50.60
22923;DHT22;11627;51.322;22.816;2022-11-15T13:20:26;7.40;51.30
22923;DHT22;11627;51.322;22.816;2022-11-15T13:23:07;7.30;52.90
22923;DHT22;11627;51.322;22.816;2022-11-15T13:30:56;7.40;53.80
22923;DHT22;11627;51.322;22.816;2022-11-15T13:33:30;7.40;53.80
22923;DHT22;11627;51.322;22.816;2022-11-15T13:35:59;7.40;52.60
22923;DHT22;11627;51.322;22.816;2022-11-15T13:38:37;7.50;51.20
22923;DHT22;11627;51.322;22.816;2022-11-15T13:41:19;7.40;52.20
22923;DHT22;11627;51.322;22.816;2022-11-15T13:43:46;7.40;49.00
22923;DHT22;11627;51.322;22.816;2022-11-15T13:46:16;7.50;49.50
22923;DHT22;11627;51.322;22.816;2022-11-15T13:48:44;7.40;49.20
22923;DHT22;11627;51.322;22.816;2022-11-15T13:53:42;7.30;49.80
22923;DHT22;11627;51.322;22.816;2022-11-15T13:56:08;7.70;52.20
22923;DHT22;11627;51.322;22.816;2022-11-15T13:58:37;7.80;55.80
22923;DHT22;11627;51.322;22.816;2022-11-15T14:01:05;7.30;55.60
22923;DHT22;11627;51.322;22.816;2022-11-15T14:03:33;7.30;57.00
22923;DHT22;11627;51.322;22.816;2022-11-15T14:08:33;7.30;60.30
22923;DHT22;11627;51.322;22.816;2022-11-15T14:11:11;7.30;59.70
22923;DHT22;11627;51.322;22.816;2022-11-15T14:13:38;7.30;59.70
22923;DHT22;11627;51.322;22.816;2022-11-15T14:18:59;7.30;60.80
22923;DHT22;11627;51.322;22.816;2022-11-15T14:21:24;7.30;60.30
22923;DHT22;11627;51.322;22.816;2022-11-15T14:23:50;7.70;60.20
22923;DHT22;11627;51.322;22.816;2022-11-15T14:26:28;7.30;57.80
22923;DHT22;11627;51.322;22.816;2022-11-15T14:28:54;7.30;57.30
22923;DHT22;11627;51.322;22.816;2022-11-15T14:31:20;7.20;57.60
22923;DHT22;11627;51.322;22.816;2022-11-15T14:33:47;7.30;57.10
22923;DHT22;11627;51.322;22.816;2022-11-15T14:36:15;7.30;56.00
22923;DHT22;11627;51.322;22.816;2022-11-15T14:38:41;7.30;54.60
22923;DHT22;11627;51.322;22.816;2022-11-15T14:41:18;7.30;52.90
22923;DHT22;11627;51.322;22.816;2022-11-15T14:43:44;7.20;52.80
22923;DHT22;11627;51.322;22.816;2022-11-15T14:46:09;7.10;52.60
22923;DHT22;11627;51.322;22.816;2022-11-15T14:48:35;7.10;51.90
22923;DHT22;11627;51.322;22.816;2022-11-15T14:51:01;7.40;50.30
22923;DHT22;11627;51.322;22.816;2022-11-15T14:53:27;7.10;53.30
22923;DHT22;11627;51.322;22.816;2022-11-15T14:55:53;7.10;54.40
22923;DHT22;11627;51.322;22.816;2022-11-15T14:58:18;7.10;55.40
22923;DHT22;11627;51.322;22.816;2022-11-15T15:00:44;7.10;54.90
22923;DHT22;11627;51.322;22.816;2022-11-15T15:03:10;7.00;56.20
22923;DHT22;11627;51.322;22.816;2022-11-15T15:05:41;7.10;53.90
22923;DHT22;11627;51.322;22.816;2022-11-15T15:08:08;7.10;53.40
22923;DHT22;11627;51.322;22.816;2022-11-15T15:10:36;7.00;51.90
22923;DHT22;11627;51.322;22.816;2022-11-15T15:13:03;7.10;49.50
22923;DHT22;11627;51.322;22.816;2022-11-15T15:15:34;7.00;49.90
22923;DHT22;11627;51.322;22.816;2022-11-15T15:18:01;6.90;51.10
22923;DHT22;11627;51.322;22.816;2022-11-15T15:20:27;6.90;51.40
22923;DHT22;11627;51.322;22.816;2022-11-15T15:22:53;7.10;47.90
22923;DHT22;11627;51.322;22.816;2022-11-15T15:25:31;6.70;48.90
22923;DHT22;11627;51.322;22.816;2022-11-15T15:27:58;6.60;50.60
22923;DHT22;11627;51.322;22.816;2022-11-15T15:30:25;6.50;52.30
22923;DHT22;11627;51.322;22.816;2022-11-15T15:32:51;6.50;56.20
22923;DHT22;11627;51.322;22.816;2022-11-15T15:35:17;6.40;60.00
22923;DHT22;11627;51.322;22.816;2022-11-15T15:37:44;6.40;62.60
22923;DHT22;11627;51.322;22.816;2022-11-15T15:40:18;6.40;62.70
22923;DHT22;11627;51.322;22.816;2022-11-15T15:42:45;6.30;63.40
22923;DHT22;11627;51.322;22.816;2022-11-15T15:45:11;6.30;65.20
22923;DHT22;11627;51.322;22.816;2022-11-15T15:47:37;6.30;65.60
22923;DHT22;11627;51.322;22.816;2022-11-15T15:50:10;6.90;64.80
22923;DHT22;11627;51.322;22.816;2022-11-15T15:52:37;6.50;60.80
22923;DHT22;11627;51.322;22.816;2022-11-15T15:55:03;6.50;59.10
22923;DHT22;11627;51.322;22.816;2022-11-15T15:57:28;6.50;59.40
22923;DHT22;11627;51.322;22.816;2022-11-15T15:59:54;6.60;58.40
22923;DHT22;11627;51.322;22.816;2022-11-15T16:02:19;6.60;56.50
22923;DHT22;11627;51.322;22.816;2022-11-15T16:04:45;6.60;59.50
22923;DHT22;11627;51.322;22.816;2022-11-15T16:07:31;6.60;59.90
22923;DHT22;11627;51.322;22.816;2022-11-15T16:09:57;6.50;60.50
22923;DHT22;11627;51.322;22.816;2022-11-15T16:12:29;6.60;61.00
22923;DHT22;11627;51.322;22.816;2022-11-15T16:14:55;7.00;61.40
22923;DHT22;11627;51.322;22.816;2022-11-15T16:17:23;6.50;60.80
22923;DHT22;11627;51.322;22.816;2022-11-15T16:19:49;6.50;61.20
22923;DHT22;11627;51.322;22.816;2022-11-15T16:22:15;6.40;59.30
22923;DHT22;11627;51.322;22.816;2022-11-15T16:24:40;6.60;59.30
22923;DHT22;11627;51.322;22.816;2022-11-15T16:27:13;6.70;58.90
22923;DHT22;11627;51.322;22.816;2022-11-15T16:29:39;6.70;60.50
22923;DHT22;11627;51.322;22.816;2022-11-15T16:32:05;6.50;62.90
22923;DHT22;11627;51.322;22.816;2022-11-15T16:34:31;6.40;65.60
22923;DHT22;11627;51.322;22.816;2022-11-15T16:36:56;6.30;68.10
22923;DHT22;11627;51.322;22.816;2022-11-15T16:39:22;6.30;69.30
22923;DHT22;11627;51.322;22.816;2022-11-15T16:41:48;6.20;70.40
22923;DHT22;11627;51.322;22.816;2022-11-15T16:44:14;6.30;69.40
22923;DHT22;11627;51.322;22.816;2022-11-15T16:46:43;6.30;69.80
22923;DHT22;11627;51.322;22.816;2022-11-15T16:49:13;6.50;67.90
22923;DHT22;11627;51.322;22.816;2022-11-15T16:51:40;6.40;67.20
22923;DHT22;11627;51.322;22.816;2022-11-15T16:54:06;6.30;69.00
22923;DHT22;11627;51.322;22.816;2022-11-15T16:56:33;6.30;70.20
22923;DHT22;11627;51.322;22.816;2022-11-15T16:59:00;6.30;71.50
22923;DHT22;11627;51.322;22.816;2022-11-15T17:01:30;6.30;72.20
22923;DHT22;11627;51.322;22.816;2022-11-15T17:03:57;6.40;71.80
22923;DHT22;11627;51.322;22.816;2022-11-15T17:06:24;6.50;71.10
22923;DHT22;11627;51.322;22.816;2022-11-15T17:08:51;6.50;70.60
22923;DHT22;11627;51.322;22.816;2022-11-15T17:11:19;6.80;70.50
22923;DHT22;11627;51.322;22.816;2022-11-15T17:13:45;6.40;71.40
22923;DHT22;11627;51.322;22.816;2022-11-15T17:16:16;7.10;72.90
22923;DHT22;11627;51.322;22.816;2022-11-15T17:18:42;6.30;73.90
22923;DHT22;11627;51.322;22.816;2022-11-15T17:21:16;6.30;74.40
22923;DHT22;11627;51.322;22.816;2022-11-15T17:23:42;6.40;75.10
22923;DHT22;11627;51.322;22.816;2022-11-15T17:26:10;6.50;73.30
22923;DHT22;11627;51.322;22.816;2022-11-15T17:28:36;6.50;72.90
22923;DHT22;11627;51.322;22.816;2022-11-15T17:31:08;6.50;73.40
22923;DHT22;11627;51.322;22.816;2022-11-15T17:33:35;6.60;72.00
22923;DHT22;11627;51.322;22.816;2022-11-15T17:36:05;6.50;72.00
22923;DHT22;11627;51.322;22.816;2022-11-15T17:38:32;6.50;72.30
22923;DHT22;11627;51.322;22.816;2022-11-15T17:41:28;6.50;71.80
22923;DHT22;11627;51.322;22.816;2022-11-15T17:44:07;6.50;72.80
22923;DHT22;11627;51.322;22.816;2022-11-15T17:46:35;6.50;73.80
22923;DHT22;11627;51.322;22.816;2022-11-15T17:49:02;6.50;74.70
22923;DHT22;11627;51.322;22.816;2022-11-15T17:51:32;6.30;76.20
22923;DHT22;11627;51.322;22.816;2022-11-15T17:53:59;6.30;77.30
22923;DHT22;11627;51.322;22.816;2022-11-15T17:56:27;6.40;77.70
22923;DHT22;11627;51.322;22.816;2022-11-15T17:58:57;6.50;76.30
22923;DHT22;11627;51.322;22.816;2022-11-15T18:01:30;6.50;74.70
22923;DHT22;11627;51.322;22.816;2022-11-15T18:03:58;6.50;75.60
22923;DHT22;11627;51.322;22.816;2022-11-15T18:06:30;6.40;76.10
22923;DHT22;11627;51.322;22.816;2022-11-15T18:08:57;6.50;75.90
22923;DHT22;11627;51.322;22.816;2022-11-15T18:11:30;6.50;75.10